sensor_id;sensor_type;location;lat;lon;timestamp;temperature;humidity
20568;DHT22;10442;49.932;11.592;2024-02-26T00:02:03;4.10;68.80
20568;DHT22;10442;49.932;11.592;2024-02-26T00:04:31;4.10;69.00
20568;DHT22;10442;49.932;11.592;2024-02-26T00:06:59;4.10;69.10
20568;DHT22;10442;49.932;11.592;2024-02-26T00:09:28;4.10;69.00
20568;DHT22;10442;49.932;11.592;2024-02-26T00:11:56;4.10;69.00
20568;DHT22;10442;49.932;11.592;2024-02-26T00:14:25;4.00;69.20
20568;DHT22;10442;49.932;11.592;2024-02-26T00:16:52;4.00;69.20
20568;DHT22;10442;49.932;11.592;2024-02-26T00:19:19;4.00;69.10
20568;DHT22;10442;49.932;11.592;2024-02-26T00:21:47;4.00;69.10
20568;DHT22;10442;49.932;11.592;2024-02-26T00:24:14;4.00;69.30
20568;DHT22;10442;49.932;11.592;2024-02-26T00:26:42;4.00;69.30
20568;DHT22;10442;49.932;11.592;2024-02-26T00:29:10;3.90;69.10
20568;DHT22;10442;49.932;11.592;2024-02-26T00:31:38;3.90;69.00
20568;DHT22;10442;49.932;11.592;2024-02-26T00:34:05;3.90;69.10
20568;DHT22;10442;49.932;11.592;2024-02-26T00:36:33;3.90;69.20
20568;DHT22;10442;49.932;11.592;2024-02-26T00:39:01;3.90;69.30
20568;DHT22;10442;49.932;11.592;2024-02-26T00:41:30;3.90;69.20
20568;DHT22;10442;49.932;11.592;2024-02-26T00:43:58;3.90;69.10
20568;DHT22;10442;49.932;11.592;2024-02-26T00:46:25;3.90;69.10
20568;DHT22;10442;49.932;11.592;2024-02-26T00:48:53;3.90;69.10
20568;DHT22;10442;49.932;11.592;2024-02-26T00:51:21;3.90;69.20
20568;DHT22;10442;49.932;11.592;2024-02-26T00:53:52;3.80;69.30
20568;DHT22;10442;49.932;11.592;2024-02-26T00:56:20;3.80;69.90
20568;DHT22;10442;49.932;11.592;2024-02-26T00:58:47;3.80;70.00
20568;DHT22;10442;49.932;11.592;2024-02-26T01:01:14;3.80;70.20
20568;DHT22;10442;49.932;11.592;2024-02-26T01:03:42;3.80;71.10
20568;DHT22;10442;49.932;11.592;2024-02-26T01:06:10;3.80;70.40
20568;DHT22;10442;49.932;11.592;2024-02-26T01:08:38;3.80;70.50
20568;DHT22;10442;49.932;11.592;2024-02-26T01:11:06;3.70;70.30
20568;DHT22;10442;49.932;11.592;2024-02-26T01:13:35;3.70;70.10
20568;DHT22;10442;49.932;11.592;2024-02-26T01:16:02;3.70;70.00
20568;DHT22;10442;49.932;11.592;2024-02-26T01:18:29;3.70;70.20
20568;DHT22;10442;49.932;11.592;2024-02-26T01:20:57;3.70;70.30
20568;DHT22;10442;49.932;11.592;2024-02-26T01:23:25;3.70;70.30
20568;DHT22;10442;49.932;11.592;2024-02-26T01:25:52;3.70;70.20
20568;DHT22;10442;49.932;11.592;2024-02-26T01:28:19;3.70;70.20
20568;DHT22;10442;49.932;11.592;2024-02-26T01:30:47;3.60;70.00
20568;DHT22;10442;49.932;11.592;2024-02-26T01:33:16;3.60;69.90
20568;DHT22;10442;49.932;11.592;2024-02-26T01:35:44;3.60;70.00
20568;DHT22;10442;49.932;11.592;2024-02-26T01:38:11;3.60;70.20
20568;DHT22;10442;49.932;11.592;2024-02-26T01:40:38;3.60;70.30
20568;DHT22;10442;49.932;11.592;2024-02-26T01:43:06;3.60;70.40
20568;DHT22;10442;49.932;11.592;2024-02-26T01:45:33;3.60;70.30
20568;DHT22;10442;49.932;11.592;2024-02-26T01:48:02;3.50;70.30
20568;DHT22;10442;49.932;11.592;2024-02-26T01:50:31;3.50;70.40
20568;DHT22;10442;49.932;11.592;2024-02-26T01:52:59;3.50;70.40
20568;DHT22;10442;49.932;11.592;2024-02-26T01:55:27;3.50;70.60
20568;DHT22;10442;49.932;11.592;2024-02-26T01:57:55;3.50;70.60
20568;DHT22;10442;49.932;11.592;2024-02-26T02:00:23;3.40;70.50
20568;DHT22;10442;49.932;11.592;2024-02-26T02:02:51;3.40;70.40
20568;DHT22;10442;49.932;11.592;2024-02-26T02:05:21;3.40;70.30
20568;DHT22;10442;49.932;11.592;2024-02-26T02:07:48;3.40;70.40
20568;DHT22;10442;49.932;11.592;2024-02-26T02:10:16;3.40;70.60
20568;DHT22;10442;49.932;11.592;2024-02-26T02:12:45;3.30;70.60
20568;DHT22;10442;49.932;11.592;2024-02-26T02:15:13;3.30;70.70
20568;DHT22;10442;49.932;11.592;2024-02-26T02:17:41;3.30;70.70
20568;DHT22;10442;49.932;11.592;2024-02-26T02:20:14;3.30;70.70
20568;DHT22;10442;49.932;11.592;2024-02-26T02:22:46;3.30;71.00
20568;DHT22;10442;49.932;11.592;2024-02-26T02:25:15;3.20;70.90
20568;DHT22;10442;49.932;11.592;2024-02-26T02:27:43;3.20;71.60
20568;DHT22;10442;49.932;11.592;2024-02-26T02:30:11;3.20;70.90
20568;DHT22;10442;49.932;11.592;2024-02-26T02:32:40;3.20;70.90
20568;DHT22;10442;49.932;11.592;2024-02-26T02:35:10;3.20;70.80
20568;DHT22;10442;49.932;11.592;2024-02-26T02:37:37;3.20;70.70
20568;DHT22;10442;49.932;11.592;2024-02-26T02:40:07;3.20;70.60
20568;DHT22;10442;49.932;11.592;2024-02-26T02:42:34;3.20;70.70
20568;DHT22;10442;49.932;11.592;2024-02-26T02:45:02;3.10;70.60
20568;DHT22;10442;49.932;11.592;2024-02-26T02:47:30;3.10;70.60
20568;DHT22;10442;49.932;11.592;2024-02-26T02:49:59;3.10;70.70
20568;DHT22;10442;49.932;11.592;2024-02-26T02:52:26;3.10;70.80
20568;DHT22;10442;49.932;11.592;2024-02-26T02:54:54;3.10;70.80
20568;DHT22;10442;49.932;11.592;2024-02-26T02:57:21;3.10;70.90
20568;DHT22;10442;49.932;11.592;2024-02-26T02:59:50;3.10;71.10
20568;DHT22;10442;49.932;11.592;2024-02-26T03:02:18;3.10;71.20
20568;DHT22;10442;49.932;11.592;2024-02-26T03:04:45;3.10;71.40
20568;DHT22;10442;49.932;11.592;2024-02-26T03:07:12;3.10;71.40
20568;DHT22;10442;49.932;11.592;2024-02-26T03:09:40;3.10;71.40
20568;DHT22;10442;49.932;11.592;2024-02-26T03:12:08;3.20;71.60
20568;DHT22;10442;49.932;11.592;2024-02-26T03:14:35;3.20;71.60
20568;DHT22;10442;49.932;11.592;2024-02-26T03:17:04;3.20;71.60
20568;DHT22;10442;49.932;11.592;2024-02-26T03:19:32;3.20;71.70
20568;DHT22;10442;49.932;11.592;2024-02-26T03:21:59;3.30;71.70
20568;DHT22;10442;49.932;11.592;2024-02-26T03:24:27;3.30;71.60
20568;DHT22;10442;49.932;11.592;2024-02-26T03:26:54;3.30;71.60
20568;DHT22;10442;49.932;11.592;2024-02-26T03:29:22;3.40;71.70
20568;DHT22;10442;49.932;11.592;2024-02-26T03:31:49;3.40;71.70
20568;DHT22;10442;49.932;11.592;2024-02-26T03:34:17;3.40;71.70
20568;DHT22;10442;49.932;11.592;2024-02-26T03:36:48;3.40;71.60
20568;DHT22;10442;49.932;11.592;2024-02-26T03:39:17;3.40;71.70
20568;DHT22;10442;49.932;11.592;2024-02-26T03:41:46;3.50;72.10
20568;DHT22;10442;49.932;11.592;2024-02-26T03:44:14;3.50;72.20
20568;DHT22;10442;49.932;11.592;2024-02-26T03:46:43;3.50;72.10
20568;DHT22;10442;49.932;11.592;2024-02-26T03:49:10;3.60;72.10
20568;DHT22;10442;49.932;11.592;2024-02-26T03:51:39;3.60;72.20
20568;DHT22;10442;49.932;11.592;2024-02-26T03:54:06;3.60;72.30
20568;DHT22;10442;49.932;11.592;2024-02-26T03:56:35;3.60;72.20
20568;DHT22;10442;49.932;11.592;2024-02-26T03:59:03;3.70;72.20
20568;DHT22;10442;49.932;11.592;2024-02-26T04:01:30;3.70;72.10
20568;DHT22;10442;49.932;11.592;2024-02-26T04:03:59;3.70;72.10
20568;DHT22;10442;49.932;11.592;2024-02-26T04:06:26;3.70;72.00
20568;DHT22;10442;49.932;11.592;2024-02-26T04:08:54;3.70;71.90
20568;DHT22;10442;49.932;11.592;2024-02-26T04:11:21;3.80;72.20
20568;DHT22;10442;49.932;11.592;2024-02-26T04:13:49;3.80;72.30
20568;DHT22;10442;49.932;11.592;2024-02-26T04:16:19;3.80;72.50
20568;DHT22;10442;49.932;11.592;2024-02-26T04:18:47;3.80;72.60
20568;DHT22;10442;49.932;11.592;2024-02-26T04:21:15;3.80;72.60
20568;DHT22;10442;49.932;11.592;2024-02-26T04:23:43;3.80;72.50
20568;DHT22;10442;49.932;11.592;2024-02-26T04:26:10;3.80;72.50
20568;DHT22;10442;49.932;11.592;2024-02-26T04:28:38;3.80;72.60
20568;DHT22;10442;49.932;11.592;2024-02-26T04:31:06;3.80;72.60
20568;DHT22;10442;49.932;11.592;2024-02-26T04:33:36;3.80;72.60
20568;DHT22;10442;49.932;11.592;2024-02-26T04:36:04;3.90;72.80
20568;DHT22;10442;49.932;11.592;2024-02-26T04:38:34;4.00;72.90
20568;DHT22;10442;49.932;11.592;2024-02-26T04:41:02;3.90;72.90
20568;DHT22;10442;49.932;11.592;2024-02-26T04:43:29;3.90;72.90
20568;DHT22;10442;49.932;11.592;2024-02-26T04:45:57;3.90;72.80
20568;DHT22;10442;49.932;11.592;2024-02-26T04:48:24;4.00;72.90
20568;DHT22;10442;49.932;11.592;2024-02-26T04:50:53;4.00;72.80
20568;DHT22;10442;49.932;11.592;2024-02-26T04:53:21;4.00;72.80
20568;DHT22;10442;49.932;11.592;2024-02-26T04:55:50;4.00;72.70
20568;DHT22;10442;49.932;11.592;2024-02-26T04:58:18;4.00;72.80
20568;DHT22;10442;49.932;11.592;2024-02-26T05:00:46;4.10;73.40
20568;DHT22;10442;49.932;11.592;2024-02-26T05:03:14;4.10;72.40
20568;DHT22;10442;49.932;11.592;2024-02-26T05:05:43;4.10;72.20
20568;DHT22;10442;49.932;11.592;2024-02-26T05:08:11;4.10;72.10
20568;DHT22;10442;49.932;11.592;2024-02-26T05:10:38;4.10;72.10
20568;DHT22;10442;49.932;11.592;2024-02-26T05:13:10;4.10;72.10
20568;DHT22;10442;49.932;11.592;2024-02-26T05:15:39;4.10;71.90
20568;DHT22;10442;49.932;11.592;2024-02-26T05:18:07;4.10;72.00
20568;DHT22;10442;49.932;11.592;2024-02-26T05:20:36;4.00;71.80
20568;DHT22;10442;49.932;11.592;2024-02-26T05:23:05;4.00;71.90
20568;DHT22;10442;49.932;11.592;2024-02-26T05:25:35;4.00;72.00
20568;DHT22;10442;49.932;11.592;2024-02-26T05:28:03;4.00;72.20
20568;DHT22;10442;49.932;11.592;2024-02-26T05:30:32;3.90;72.10
20568;DHT22;10442;49.932;11.592;2024-02-26T05:33:00;3.90;72.20
20568;DHT22;10442;49.932;11.592;2024-02-26T05:35:27;3.90;72.40
20568;DHT22;10442;49.932;11.592;2024-02-26T05:37:55;3.80;72.60
20568;DHT22;10442;49.932;11.592;2024-02-26T05:40:22;3.80;72.50
20568;DHT22;10442;49.932;11.592;2024-02-26T05:42:49;3.80;72.50
20568;DHT22;10442;49.932;11.592;2024-02-26T05:45:17;3.80;72.50
20568;DHT22;10442;49.932;11.592;2024-02-26T05:47:45;3.70;72.50
20568;DHT22;10442;49.932;11.592;2024-02-26T05:50:13;3.70;72.50
20568;DHT22;10442;49.932;11.592;2024-02-26T05:52:43;3.70;72.50
20568;DHT22;10442;49.932;11.592;2024-02-26T05:55:10;3.70;72.60
20568;DHT22;10442;49.932;11.592;2024-02-26T05:57:38;3.70;72.90
20568;DHT22;10442;49.932;11.592;2024-02-26T06:00:06;3.70;73.10
20568;DHT22;10442;49.932;11.592;2024-02-26T06:02:40;3.70;73.30
20568;DHT22;10442;49.932;11.592;2024-02-26T06:05:08;3.80;73.50
20568;DHT22;10442;49.932;11.592;2024-02-26T06:07:36;3.80;73.60
20568;DHT22;10442;49.932;11.592;2024-02-26T06:10:04;3.80;73.60
20568;DHT22;10442;49.932;11.592;2024-02-26T06:12:35;3.90;73.60
20568;DHT22;10442;49.932;11.592;2024-02-26T06:15:03;3.90;73.50
20568;DHT22;10442;49.932;11.592;2024-02-26T06:17:32;4.00;73.60
20568;DHT22;10442;49.932;11.592;2024-02-26T06:20:00;4.00;73.70
20568;DHT22;10442;49.932;11.592;2024-02-26T06:22:29;4.00;73.80
20568;DHT22;10442;49.932;11.592;2024-02-26T06:24:57;4.10;73.90
20568;DHT22;10442;49.932;11.592;2024-02-26T06:27:24;4.10;74.00
20568;DHT22;10442;49.932;11.592;2024-02-26T06:29:52;4.20;74.20
20568;DHT22;10442;49.932;11.592;2024-02-26T06:32:23;4.20;74.20
20568;DHT22;10442;49.932;11.592;2024-02-26T06:34:51;4.30;74.30
20568;DHT22;10442;49.932;11.592;2024-02-26T06:37:18;4.40;74.40
20568;DHT22;10442;49.932;11.592;2024-02-26T06:39:46;4.50;74.40
20568;DHT22;10442;49.932;11.592;2024-02-26T06:42:13;4.50;74.30
20568;DHT22;10442;49.932;11.592;2024-02-26T06:44:42;4.60;74.30
20568;DHT22;10442;49.932;11.592;2024-02-26T06:47:09;4.80;74.40
20568;DHT22;10442;49.932;11.592;2024-02-26T06:49:39;4.80;74.30
20568;DHT22;10442;49.932;11.592;2024-02-26T06:52:06;4.90;74.40
20568;DHT22;10442;49.932;11.592;2024-02-26T06:54:34;5.00;74.60
20568;DHT22;10442;49.932;11.592;2024-02-26T06:57:04;5.20;74.60
20568;DHT22;10442;49.932;11.592;2024-02-26T06:59:32;5.30;74.50
20568;DHT22;10442;49.932;11.592;2024-02-26T07:02:01;5.50;74.20
20568;DHT22;10442;49.932;11.592;2024-02-26T07:04:29;5.70;74.30
20568;DHT22;10442;49.932;11.592;2024-02-26T07:07:02;5.90;74.10
20568;DHT22;10442;49.932;11.592;2024-02-26T07:09:30;6.20;74.00
20568;DHT22;10442;49.932;11.592;2024-02-26T07:11:57;6.40;73.60
20568;DHT22;10442;49.932;11.592;2024-02-26T07:14:29;6.60;73.20
20568;DHT22;10442;49.932;11.592;2024-02-26T07:16:56;6.90;72.90
20568;DHT22;10442;49.932;11.592;2024-02-26T07:19:25;7.20;72.70
20568;DHT22;10442;49.932;11.592;2024-02-26T07:21:53;7.40;72.50
20568;DHT22;10442;49.932;11.592;2024-02-26T07:24:21;7.70;72.10
20568;DHT22;10442;49.932;11.592;2024-02-26T07:26:49;8.00;71.10
20568;DHT22;10442;49.932;11.592;2024-02-26T07:29:18;8.40;71.00
20568;DHT22;10442;49.932;11.592;2024-02-26T07:31:45;8.80;71.00
20568;DHT22;10442;49.932;11.592;2024-02-26T07:34:13;9.30;70.40
20568;DHT22;10442;49.932;11.592;2024-02-26T07:36:41;9.80;69.80
20568;DHT22;10442;49.932;11.592;2024-02-26T07:39:09;10.30;68.00
20568;DHT22;10442;49.932;11.592;2024-02-26T07:41:38;10.80;67.20
20568;DHT22;10442;49.932;11.592;2024-02-26T07:44:07;11.20;66.20
20568;DHT22;10442;49.932;11.592;2024-02-26T07:46:37;11.60;65.10
20568;DHT22;10442;49.932;11.592;2024-02-26T07:49:06;11.90;63.80
20568;DHT22;10442;49.932;11.592;2024-02-26T07:51:36;12.00;63.00
20568;DHT22;10442;49.932;11.592;2024-02-26T07:54:03;12.20;61.90
20568;DHT22;10442;49.932;11.592;2024-02-26T07:56:32;12.20;61.50
20568;DHT22;10442;49.932;11.592;2024-02-26T07:59:00;12.10;61.10
20568;DHT22;10442;49.932;11.592;2024-02-26T08:01:27;12.10;60.90
20568;DHT22;10442;49.932;11.592;2024-02-26T08:03:56;12.00;60.80
20568;DHT22;10442;49.932;11.592;2024-02-26T08:06:26;11.90;61.60
20568;DHT22;10442;49.932;11.592;2024-02-26T08:08:54;11.80;60.80
20568;DHT22;10442;49.932;11.592;2024-02-26T08:11:22;11.70;60.90
20568;DHT22;10442;49.932;11.592;2024-02-26T08:13:50;11.60;60.80
20568;DHT22;10442;49.932;11.592;2024-02-26T08:16:18;11.50;61.00
20568;DHT22;10442;49.932;11.592;2024-02-26T08:18:46;11.40;61.10
20568;DHT22;10442;49.932;11.592;2024-02-26T08:21:14;11.40;61.50
20568;DHT22;10442;49.932;11.592;2024-02-26T08:23:43;11.40;62.10
20568;DHT22;10442;49.932;11.592;2024-02-26T08:26:11;11.40;62.40
20568;DHT22;10442;49.932;11.592;2024-02-26T08:28:39;11.40;62.30
20568;DHT22;10442;49.932;11.592;2024-02-26T08:31:07;11.50;62.00
20568;DHT22;10442;49.932;11.592;2024-02-26T08:33:35;11.50;62.10
20568;DHT22;10442;49.932;11.592;2024-02-26T08:36:05;11.50;62.10
20568;DHT22;10442;49.932;11.592;2024-02-26T08:38:33;11.50;62.00
20568;DHT22;10442;49.932;11.592;2024-02-26T08:41:03;11.50;61.90
20568;DHT22;10442;49.932;11.592;2024-02-26T08:43:31;11.40;62.00
20568;DHT22;10442;49.932;11.592;2024-02-26T08:45:59;11.40;61.80
20568;DHT22;10442;49.932;11.592;2024-02-26T08:48:27;11.60;62.00
20568;DHT22;10442;49.932;11.592;2024-02-26T08:50:55;11.40;61.70
20568;DHT22;10442;49.932;11.592;2024-02-26T08:53:23;11.30;61.20
20568;DHT22;10442;49.932;11.592;2024-02-26T08:56:01;11.30;61.60
20568;DHT22;10442;49.932;11.592;2024-02-26T08:58:29;11.30;61.40
20568;DHT22;10442;49.932;11.592;2024-02-26T09:00:57;11.20;61.70
20568;DHT22;10442;49.932;11.592;2024-02-26T09:03:25;11.20;61.60
20568;DHT22;10442;49.932;11.592;2024-02-26T09:05:53;11.20;61.60
20568;DHT22;10442;49.932;11.592;2024-02-26T09:08:21;11.10;61.70
20568;DHT22;10442;49.932;11.592;2024-02-26T09:10:50;11.10;62.00
20568;DHT22;10442;49.932;11.592;2024-02-26T09:13:18;11.20;62.20
20568;DHT22;10442;49.932;11.592;2024-02-26T09:15:47;11.20;62.30
20568;DHT22;10442;49.932;11.592;2024-02-26T09:18:15;11.20;61.90
20568;DHT22;10442;49.932;11.592;2024-02-26T09:20:43;11.20;61.80
20568;DHT22;10442;49.932;11.592;2024-02-26T09:23:11;11.10;61.90
20568;DHT22;10442;49.932;11.592;2024-02-26T09:25:39;11.10;61.60
20568;DHT22;10442;49.932;11.592;2024-02-26T09:28:07;11.20;61.80
20568;DHT22;10442;49.932;11.592;2024-02-26T09:30:34;11.20;61.80
20568;DHT22;10442;49.932;11.592;2024-02-26T09:33:02;11.20;61.50
20568;DHT22;10442;49.932;11.592;2024-02-26T09:35:30;11.20;61.60
20568;DHT22;10442;49.932;11.592;2024-02-26T09:37:57;11.30;61.80
20568;DHT22;10442;49.932;11.592;2024-02-26T09:40:26;11.30;62.10
20568;DHT22;10442;49.932;11.592;2024-02-26T09:43:04;11.40;61.80
20568;DHT22;10442;49.932;11.592;2024-02-26T09:45:35;11.40;61.30
20568;DHT22;10442;49.932;11.592;2024-02-26T09:48:04;11.50;61.70
20568;DHT22;10442;49.932;11.592;2024-02-26T09:50:34;11.60;61.30
20568;DHT22;10442;49.932;11.592;2024-02-26T09:53:02;11.70;61.00
20568;DHT22;10442;49.932;11.592;2024-02-26T09:55:30;11.80;61.00
20568;DHT22;10442;49.932;11.592;2024-02-26T09:57:58;11.90;60.70
20568;DHT22;10442;49.932;11.592;2024-02-26T10:00:30;12.00;60.60
20568;DHT22;10442;49.932;11.592;2024-02-26T10:03:04;12.20;60.80
20568;DHT22;10442;49.932;11.592;2024-02-26T10:05:33;12.20;60.30
20568;DHT22;10442;49.932;11.592;2024-02-26T10:08:01;12.30;59.60
20568;DHT22;10442;49.932;11.592;2024-02-26T10:10:32;12.40;59.30
20568;DHT22;10442;49.932;11.592;2024-02-26T10:13:01;12.50;59.80
20568;DHT22;10442;49.932;11.592;2024-02-26T10:15:31;12.50;59.30
20568;DHT22;10442;49.932;11.592;2024-02-26T10:17:59;12.60;59.60
20568;DHT22;10442;49.932;11.592;2024-02-26T10:20:27;12.60;59.00
20568;DHT22;10442;49.932;11.592;2024-02-26T10:22:55;12.70;58.80
20568;DHT22;10442;49.932;11.592;2024-02-26T10:25:23;12.80;58.60
20568;DHT22;10442;49.932;11.592;2024-02-26T10:27:52;12.80;58.60
20568;DHT22;10442;49.932;11.592;2024-02-26T10:30:21;12.80;58.50
20568;DHT22;10442;49.932;11.592;2024-02-26T10:32:52;12.90;58.20
20568;DHT22;10442;49.932;11.592;2024-02-26T10:35:20;13.00;58.20
20568;DHT22;10442;49.932;11.592;2024-02-26T10:37:51;13.00;58.50
20568;DHT22;10442;49.932;11.592;2024-02-26T10:40:19;13.10;58.30
20568;DHT22;10442;49.932;11.592;2024-02-26T10:42:47;13.10;58.10
20568;DHT22;10442;49.932;11.592;2024-02-26T10:45:15;13.10;58.10
20568;DHT22;10442;49.932;11.592;2024-02-26T10:47:43;13.20;57.50
20568;DHT22;10442;49.932;11.592;2024-02-26T10:50:13;13.20;57.90
20568;DHT22;10442;49.932;11.592;2024-02-26T10:52:42;13.30;57.20
20568;DHT22;10442;49.932;11.592;2024-02-26T10:55:15;13.30;57.30
20568;DHT22;10442;49.932;11.592;2024-02-26T10:57:47;13.40;57.60
20568;DHT22;10442;49.932;11.592;2024-02-26T11:00:19;13.50;57.10
20568;DHT22;10442;49.932;11.592;2024-02-26T11:02:48;13.50;57.20
20568;DHT22;10442;49.932;11.592;2024-02-26T11:05:17;13.60;56.80
20568;DHT22;10442;49.932;11.592;2024-02-26T11:07:47;13.60;56.60
20568;DHT22;10442;49.932;11.592;2024-02-26T11:10:16;13.60;56.60
20568;DHT22;10442;49.932;11.592;2024-02-26T11:12:46;13.60;56.00
20568;DHT22;10442;49.932;11.592;2024-02-26T11:15:15;13.60;55.50
20568;DHT22;10442;49.932;11.592;2024-02-26T11:17:46;13.60;56.10
20568;DHT22;10442;49.932;11.592;2024-02-26T11:20:16;13.70;56.40
20568;DHT22;10442;49.932;11.592;2024-02-26T11:22:47;13.70;56.30
20568;DHT22;10442;49.932;11.592;2024-02-26T11:25:14;13.70;56.20
20568;DHT22;10442;49.932;11.592;2024-02-26T11:27:58;13.70;55.90
20568;DHT22;10442;49.932;11.592;2024-02-26T11:30:32;13.70;55.60
20568;DHT22;10442;49.932;11.592;2024-02-26T11:33:06;13.70;55.50
20568;DHT22;10442;49.932;11.592;2024-02-26T11:35:36;13.70;56.90
20568;DHT22;10442;49.932;11.592;2024-02-26T11:38:04;13.70;56.50
20568;DHT22;10442;49.932;11.592;2024-02-26T11:40:38;13.70;56.20
20568;DHT22;10442;49.932;11.592;2024-02-26T11:43:09;13.80;55.70
20568;DHT22;10442;49.932;11.592;2024-02-26T11:48:20;13.70;54.30
20568;DHT22;10442;49.932;11.592;2024-02-26T11:50:51;13.70;55.00
20568;DHT22;10442;49.932;11.592;2024-02-26T11:59:01;13.70;55.50
20568;DHT22;10442;49.932;11.592;2024-02-26T12:01:53;13.70;55.20
20568;DHT22;10442;49.932;11.592;2024-02-26T12:04:24;13.70;55.20
20568;DHT22;10442;49.932;11.592;2024-02-26T12:06:56;13.80;55.90
20568;DHT22;10442;49.932;11.592;2024-02-26T12:12:06;13.90;54.60
20568;DHT22;10442;49.932;11.592;2024-02-26T12:14:39;14.00;54.70
20568;DHT22;10442;49.932;11.592;2024-02-26T12:17:25;14.00;54.40
20568;DHT22;10442;49.932;11.592;2024-02-26T12:19:53;14.10;54.60
20568;DHT22;10442;49.932;11.592;2024-02-26T12:22:21;14.10;54.90
20568;DHT22;10442;49.932;11.592;2024-02-26T12:24:58;14.20;54.90
20568;DHT22;10442;49.932;11.592;2024-02-26T12:27:26;14.20;54.50
20568;DHT22;10442;49.932;11.592;2024-02-26T12:29:54;14.30;54.80
20568;DHT22;10442;49.932;11.592;2024-02-26T12:32:23;14.30;54.60
20568;DHT22;10442;49.932;11.592;2024-02-26T12:34:52;14.30;54.50
20568;DHT22;10442;49.932;11.592;2024-02-26T12:37:21;14.30;54.30
20568;DHT22;10442;49.932;11.592;2024-02-26T12:39:49;14.40;54.20
20568;DHT22;10442;49.932;11.592;2024-02-26T12:42:17;14.40;54.40
20568;DHT22;10442;49.932;11.592;2024-02-26T12:44:46;14.40;54.70
20568;DHT22;10442;49.932;11.592;2024-02-26T12:47:13;14.40;54.20
20568;DHT22;10442;49.932;11.592;2024-02-26T12:49:48;14.40;54.20
20568;DHT22;10442;49.932;11.592;2024-02-26T12:52:17;14.50;54.50
20568;DHT22;10442;49.932;11.592;2024-02-26T12:54:46;14.50;54.30
20568;DHT22;10442;49.932;11.592;2024-02-26T12:57:15;14.60;53.90
20568;DHT22;10442;49.932;11.592;2024-02-26T12:59:43;14.70;54.40
20568;DHT22;10442;49.932;11.592;2024-02-26T13:02:11;14.70;54.00
20568;DHT22;10442;49.932;11.592;2024-02-26T13:04:39;14.70;53.10
20568;DHT22;10442;49.932;11.592;2024-02-26T13:07:08;14.70;53.00
20568;DHT22;10442;49.932;11.592;2024-02-26T13:09:37;14.70;53.20
20568;DHT22;10442;49.932;11.592;2024-02-26T13:12:07;14.70;53.30
20568;DHT22;10442;49.932;11.592;2024-02-26T13:14:35;14.80;53.00
20568;DHT22;10442;49.932;11.592;2024-02-26T13:17:03;14.80;52.50
20568;DHT22;10442;49.932;11.592;2024-02-26T13:19:31;14.80;52.30
20568;DHT22;10442;49.932;11.592;2024-02-26T13:22:07;14.80;52.50
20568;DHT22;10442;49.932;11.592;2024-02-26T13:24:35;14.80;52.30
20568;DHT22;10442;49.932;11.592;2024-02-26T13:27:04;14.70;52.60
20568;DHT22;10442;49.932;11.592;2024-02-26T13:29:34;14.70;52.40
20568;DHT22;10442;49.932;11.592;2024-02-26T13:32:01;14.70;51.60
20568;DHT22;10442;49.932;11.592;2024-02-26T13:34:30;14.70;51.40
20568;DHT22;10442;49.932;11.592;2024-02-26T13:37:01;14.70;51.70
20568;DHT22;10442;49.932;11.592;2024-02-26T13:39:28;14.70;51.50
20568;DHT22;10442;49.932;11.592;2024-02-26T13:41:57;14.70;51.30
20568;DHT22;10442;49.932;11.592;2024-02-26T13:44:25;14.70;51.70
20568;DHT22;10442;49.932;11.592;2024-02-26T13:46:53;14.70;51.00
20568;DHT22;10442;49.932;11.592;2024-02-26T13:49:20;14.70;51.40
20568;DHT22;10442;49.932;11.592;2024-02-26T13:51:48;14.70;50.80
20568;DHT22;10442;49.932;11.592;2024-02-26T13:54:16;14.70;50.20
20568;DHT22;10442;49.932;11.592;2024-02-26T13:56:45;14.70;50.60
20568;DHT22;10442;49.932;11.592;2024-02-26T13:59:15;14.70;50.90
20568;DHT22;10442;49.932;11.592;2024-02-26T14:01:44;14.70;51.20
20568;DHT22;10442;49.932;11.592;2024-02-26T14:04:12;14.70;51.10
20568;DHT22;10442;49.932;11.592;2024-02-26T14:06:39;14.70;51.20
20568;DHT22;10442;49.932;11.592;2024-02-26T14:09:08;14.70;51.60
20568;DHT22;10442;49.932;11.592;2024-02-26T14:11:37;14.70;52.00
20568;DHT22;10442;49.932;11.592;2024-02-26T14:14:07;14.70;52.60
20568;DHT22;10442;49.932;11.592;2024-02-26T14:16:34;14.70;52.50
20568;DHT22;10442;49.932;11.592;2024-02-26T14:19:03;14.70;52.40
20568;DHT22;10442;49.932;11.592;2024-02-26T14:21:31;14.70;52.60
20568;DHT22;10442;49.932;11.592;2024-02-26T14:24:01;14.70;53.10
20568;DHT22;10442;49.932;11.592;2024-02-26T14:26:29;14.70;53.00
20568;DHT22;10442;49.932;11.592;2024-02-26T14:28:57;14.80;53.10
20568;DHT22;10442;49.932;11.592;2024-02-26T14:31:24;14.80;52.90
20568;DHT22;10442;49.932;11.592;2024-02-26T14:33:53;14.80;52.90
20568;DHT22;10442;49.932;11.592;2024-02-26T14:36:22;14.80;53.60
20568;DHT22;10442;49.932;11.592;2024-02-26T14:38:49;14.80;53.50
20568;DHT22;10442;49.932;11.592;2024-02-26T14:41:18;14.70;53.50
20568;DHT22;10442;49.932;11.592;2024-02-26T14:43:46;14.70;53.60
20568;DHT22;10442;49.932;11.592;2024-02-26T14:46:15;14.70;53.50
20568;DHT22;10442;49.932;11.592;2024-02-26T14:48:42;14.70;53.40
20568;DHT22;10442;49.932;11.592;2024-02-26T14:51:10;14.60;53.10
20568;DHT22;10442;49.932;11.592;2024-02-26T14:53:39;14.60;52.50
20568;DHT22;10442;49.932;11.592;2024-02-26T14:56:07;14.50;52.30
20568;DHT22;10442;49.932;11.592;2024-02-26T14:58:35;14.50;52.60
20568;DHT22;10442;49.932;11.592;2024-02-26T15:01:04;14.40;53.80
20568;DHT22;10442;49.932;11.592;2024-02-26T15:03:32;14.40;54.10
20568;DHT22;10442;49.932;11.592;2024-02-26T15:06:01;14.30;54.10
20568;DHT22;10442;49.932;11.592;2024-02-26T15:08:29;14.30;54.30
20568;DHT22;10442;49.932;11.592;2024-02-26T15:10:57;14.30;54.40
20568;DHT22;10442;49.932;11.592;2024-02-26T15:13:25;14.30;54.50
20568;DHT22;10442;49.932;11.592;2024-02-26T15:15:54;14.20;54.50
20568;DHT22;10442;49.932;11.592;2024-02-26T15:18:23;14.20;54.60
20568;DHT22;10442;49.932;11.592;2024-02-26T15:20:53;14.20;54.50
20568;DHT22;10442;49.932;11.592;2024-02-26T15:23:22;14.10;54.30
20568;DHT22;10442;49.932;11.592;2024-02-26T15:25:50;14.10;54.60
20568;DHT22;10442;49.932;11.592;2024-02-26T15:28:18;14.10;54.50
20568;DHT22;10442;49.932;11.592;2024-02-26T15:30:47;14.00;54.70
20568;DHT22;10442;49.932;11.592;2024-02-26T15:33:15;14.00;54.90
20568;DHT22;10442;49.932;11.592;2024-02-26T15:35:42;14.00;55.10
20568;DHT22;10442;49.932;11.592;2024-02-26T15:38:12;13.90;55.30
20568;DHT22;10442;49.932;11.592;2024-02-26T15:40:41;13.80;55.50
20568;DHT22;10442;49.932;11.592;2024-02-26T15:43:08;13.80;55.40